sensor_id;sensor_type;location;lat;lon;timestamp;temperature;humidity
17639;DHT22;8938;53.546;9.954;2022-08-01T00:01:42;22.40;99.90
17639;DHT22;8938;53.546;9.954;2022-08-01T00:04:08;22.40;99.90
17639;DHT22;8938;53.546;9.954;2022-08-01T00:06:33;22.40;99.90
17639;DHT22;8938;53.546;9.954;2022-08-01T00:08:59;22.50;99.90
17639;DHT22;8938;53.546;9.954;2022-08-01T00:11:25;22.50;99.90
17639;DHT22;8938;53.546;9.954;2022-08-01T00:13:51;22.50;99.90
17639;DHT22;8938;53.546;9.954;2022-08-01T00:16:16;22.50;99.90
17639;DHT22;8938;53.546;9.954;2022-08-01T00:18:42;22.50;99.90
17639;DHT22;8938;53.546;9.954;2022-08-01T00:21:08;22.50;99.90
17639;DHT22;8938;53.546;9.954;2022-08-01T00:23:33;22.40;99.90
17639;DHT22;8938;53.546;9.954;2022-08-01T00:25:59;22.50;99.90
17639;DHT22;8938;53.546;9.954;2022-08-01T00:28:24;22.40;99.90
17639;DHT22;8938;53.546;9.954;2022-08-01T00:30:50;22.40;99.90
17639;DHT22;8938;53.546;9.954;2022-08-01T00:33:15;22.40;99.90
17639;DHT22;8938;53.546;9.954;2022-08-01T00:35:41;22.40;99.90
17639;DHT22;8938;53.546;9.954;2022-08-01T00:38:06;22.40;99.90
17639;DHT22;8938;53.546;9.954;2022-08-01T00:40:32;22.40;99.90
17639;DHT22;8938;53.546;9.954;2022-08-01T00:42:58;22.40;99.90
17639;DHT22;8938;53.546;9.954;2022-08-01T00:45:23;22.40;99.90
17639;DHT22;8938;53.546;9.954;2022-08-01T00:47:49;22.30;99.90
17639;DHT22;8938;53.546;9.954;2022-08-01T00:50:14;22.30;99.90
17639;DHT22;8938;53.546;9.954;2022-08-01T00:52:41;22.40;99.90
17639;DHT22;8938;53.546;9.954;2022-08-01T00:55:08;22.50;99.90
17639;DHT22;8938;53.546;9.954;2022-08-01T00:57:34;22.40;99.90
17639;DHT22;8938;53.546;9.954;2022-08-01T01:00:00;22.50;99.90
17639;DHT22;8938;53.546;9.954;2022-08-01T01:02:26;22.40;99.90
17639;DHT22;8938;53.546;9.954;2022-08-01T01:04:51;22.50;99.90
17639;DHT22;8938;53.546;9.954;2022-08-01T01:07:54;22.40;99.90
17639;DHT22;8938;53.546;9.954;2022-08-01T01:10:28;22.40;99.90
17639;DHT22;8938;53.546;9.954;2022-08-01T01:13:09;22.40;99.90
17639;DHT22;8938;53.546;9.954;2022-08-01T01:15:46;22.40;99.90
17639;DHT22;8938;53.546;9.954;2022-08-01T01:18:22;22.40;99.90
17639;DHT22;8938;53.546;9.954;2022-08-01T01:23:50;22.40;99.90
17639;DHT22;8938;53.546;9.954;2022-08-01T01:26:36;22.40;99.90
17639;DHT22;8938;53.546;9.954;2022-08-01T01:29:28;22.40;99.90
17639;DHT22;8938;53.546;9.954;2022-08-01T01:32:07;22.40;99.90
17639;DHT22;8938;53.546;9.954;2022-08-01T01:34:37;22.40;99.90
17639;DHT22;8938;53.546;9.954;2022-08-01T01:37:09;22.40;99.90
17639;DHT22;8938;53.546;9.954;2022-08-01T01:39:36;22.30;99.90
17639;DHT22;8938;53.546;9.954;2022-08-01T01:42:06;22.30;99.90
17639;DHT22;8938;53.546;9.954;2022-08-01T01:44:32;22.30;99.90
17639;DHT22;8938;53.546;9.954;2022-08-01T01:46:59;22.30;99.90
17639;DHT22;8938;53.546;9.954;2022-08-01T01:49:26;22.30;99.90
17639;DHT22;8938;53.546;9.954;2022-08-01T01:51:55;22.30;99.90
17639;DHT22;8938;53.546;9.954;2022-08-01T01:54:23;22.30;99.90
17639;DHT22;8938;53.546;9.954;2022-08-01T01:56:50;22.20;99.90
17639;DHT22;8938;53.546;9.954;2022-08-01T01:59:20;22.20;99.90
17639;DHT22;8938;53.546;9.954;2022-08-01T02:01:47;22.20;99.90
17639;DHT22;8938;53.546;9.954;2022-08-01T02:04:16;22.20;99.90
17639;DHT22;8938;53.546;9.954;2022-08-01T02:06:43;22.20;99.90
17639;DHT22;8938;53.546;9.954;2022-08-01T02:09:10;22.20;99.90
17639;DHT22;8938;53.546;9.954;2022-08-01T02:11:38;22.20;99.90
17639;DHT22;8938;53.546;9.954;2022-08-01T02:14:05;22.20;99.90
17639;DHT22;8938;53.546;9.954;2022-08-01T02:16:35;22.20;99.90
17639;DHT22;8938;53.546;9.954;2022-08-01T02:19:02;22.20;99.90
17639;DHT22;8938;53.546;9.954;2022-08-01T02:21:32;22.20;99.90
17639;DHT22;8938;53.546;9.954;2022-08-01T02:26:49;22.20;99.90
17639;DHT22;8938;53.546;9.954;2022-08-01T02:29:22;22.10;99.90
17639;DHT22;8938;53.546;9.954;2022-08-01T02:31:56;22.10;99.90
17639;DHT22;8938;53.546;9.954;2022-08-01T02:34:24;22.10;99.90
17639;DHT22;8938;53.546;9.954;2022-08-01T02:36:51;22.10;99.90
17639;DHT22;8938;53.546;9.954;2022-08-01T02:39:19;22.10;99.90
17639;DHT22;8938;53.546;9.954;2022-08-01T02:41:50;22.00;99.90
17639;DHT22;8938;53.546;9.954;2022-08-01T02:44:26;22.10;99.90
17639;DHT22;8938;53.546;9.954;2022-08-01T02:47:00;22.00;99.90
17639;DHT22;8938;53.546;9.954;2022-08-01T02:49:33;22.00;99.90
17639;DHT22;8938;53.546;9.954;2022-08-01T02:52:03;22.00;99.90
17639;DHT22;8938;53.546;9.954;2022-08-01T02:54:29;22.00;99.90
17639;DHT22;8938;53.546;9.954;2022-08-01T02:56:56;22.10;99.90
17639;DHT22;8938;53.546;9.954;2022-08-01T02:59:24;22.10;99.90
17639;DHT22;8938;53.546;9.954;2022-08-01T03:01:53;22.10;99.90
17639;DHT22;8938;53.546;9.954;2022-08-01T03:04:20;22.10;99.90
17639;DHT22;8938;53.546;9.954;2022-08-01T03:06:48;22.10;99.90
17639;DHT22;8938;53.546;9.954;2022-08-01T03:09:14;22.00;99.90
17639;DHT22;8938;53.546;9.954;2022-08-01T03:11:42;22.00;99.90
17639;DHT22;8938;53.546;9.954;2022-08-01T03:14:09;22.00;99.90
17639;DHT22;8938;53.546;9.954;2022-08-01T03:16:38;22.10;99.90
17639;DHT22;8938;53.546;9.954;2022-08-01T03:19:07;22.00;99.90
17639;DHT22;8938;53.546;9.954;2022-08-01T03:21:34;22.10;99.90
17639;DHT22;8938;53.546;9.954;2022-08-01T03:24:01;22.20;99.90
17639;DHT22;8938;53.546;9.954;2022-08-01T03:26:30;22.20;99.90
17639;DHT22;8938;53.546;9.954;2022-08-01T03:29:05;22.20;99.90
17639;DHT22;8938;53.546;9.954;2022-08-01T03:31:36;22.20;99.90
17639;DHT22;8938;53.546;9.954;2022-08-01T03:34:04;22.20;99.90
17639;DHT22;8938;53.546;9.954;2022-08-01T03:36:31;22.30;99.90
17639;DHT22;8938;53.546;9.954;2022-08-01T03:39:02;22.20;99.90
17639;DHT22;8938;53.546;9.954;2022-08-01T03:41:33;22.20;99.90
17639;DHT22;8938;53.546;9.954;2022-08-01T03:44:05;22.30;99.90
17639;DHT22;8938;53.546;9.954;2022-08-01T03:46:42;22.10;99.90
17639;DHT22;8938;53.546;9.954;2022-08-01T03:49:11;22.20;99.90
17639;DHT22;8938;53.546;9.954;2022-08-01T03:51:40;22.20;99.90
17639;DHT22;8938;53.546;9.954;2022-08-01T03:54:06;22.20;99.90
17639;DHT22;8938;53.546;9.954;2022-08-01T03:56:34;22.20;99.90
17639;DHT22;8938;53.546;9.954;2022-08-01T03:59:00;22.30;99.90
17639;DHT22;8938;53.546;9.954;2022-08-01T04:01:29;22.20;99.90
17639;DHT22;8938;53.546;9.954;2022-08-01T04:03:57;22.20;99.90
17639;DHT22;8938;53.546;9.954;2022-08-01T04:06:23;22.20;99.90
17639;DHT22;8938;53.546;9.954;2022-08-01T04:08:49;22.30;99.90
17639;DHT22;8938;53.546;9.954;2022-08-01T04:11:23;22.20;99.90
17639;DHT22;8938;53.546;9.954;2022-08-01T04:13:49;22.20;99.90
17639;DHT22;8938;53.546;9.954;2022-08-01T04:16:16;22.20;99.90
17639;DHT22;8938;53.546;9.954;2022-08-01T04:18:41;22.20;99.90
17639;DHT22;8938;53.546;9.954;2022-08-01T04:21:07;22.10;99.90
17639;DHT22;8938;53.546;9.954;2022-08-01T04:23:35;22.10;99.90
17639;DHT22;8938;53.546;9.954;2022-08-01T04:26:03;22.10;99.90
17639;DHT22;8938;53.546;9.954;2022-08-01T04:28:31;22.10;99.90
17639;DHT22;8938;53.546;9.954;2022-08-01T04:31:00;22.20;99.90
17639;DHT22;8938;53.546;9.954;2022-08-01T04:33:26;22.20;99.90
17639;DHT22;8938;53.546;9.954;2022-08-01T04:35:54;22.10;99.90
17639;DHT22;8938;53.546;9.954;2022-08-01T04:38:22;22.00;99.90
17639;DHT22;8938;53.546;9.954;2022-08-01T04:40:52;22.00;99.90
17639;DHT22;8938;53.546;9.954;2022-08-01T04:43:19;21.90;99.90
17639;DHT22;8938;53.546;9.954;2022-08-01T04:45:46;22.00;99.90
17639;DHT22;8938;53.546;9.954;2022-08-01T04:48:13;22.00;99.90
17639;DHT22;8938;53.546;9.954;2022-08-01T04:50:41;21.90;99.90
17639;DHT22;8938;53.546;9.954;2022-08-01T04:53:13;22.00;99.90
17639;DHT22;8938;53.546;9.954;2022-08-01T04:55:38;21.90;99.90
17639;DHT22;8938;53.546;9.954;2022-08-01T04:58:04;21.90;99.90
17639;DHT22;8938;53.546;9.954;2022-08-01T05:00:30;22.00;99.90
17639;DHT22;8938;53.546;9.954;2022-08-01T05:02:55;22.00;99.90
17639;DHT22;8938;53.546;9.954;2022-08-01T05:05:21;22.00;99.90
17639;DHT22;8938;53.546;9.954;2022-08-01T05:07:47;22.00;99.90
17639;DHT22;8938;53.546;9.954;2022-08-01T05:10:13;22.00;99.90
17639;DHT22;8938;53.546;9.954;2022-08-01T05:12:38;22.10;99.90
17639;DHT22;8938;53.546;9.954;2022-08-01T05:15:04;22.10;99.90
17639;DHT22;8938;53.546;9.954;2022-08-01T05:17:31;22.10;99.90
17639;DHT22;8938;53.546;9.954;2022-08-01T05:19:57;22.10;99.90
17639;DHT22;8938;53.546;9.954;2022-08-01T05:22:23;22.00;99.90
17639;DHT22;8938;53.546;9.954;2022-08-01T05:24:50;22.00;99.90
17639;DHT22;8938;53.546;9.954;2022-08-01T05:27:18;22.00;99.90
17639;DHT22;8938;53.546;9.954;2022-08-01T05:29:43;22.00;99.90
17639;DHT22;8938;53.546;9.954;2022-08-01T05:32:09;22.00;99.90
17639;DHT22;8938;53.546;9.954;2022-08-01T05:34:35;22.10;99.90
17639;DHT22;8938;53.546;9.954;2022-08-01T05:37:00;22.10;99.90
17639;DHT22;8938;53.546;9.954;2022-08-01T05:39:26;22.10;99.90
17639;DHT22;8938;53.546;9.954;2022-08-01T05:41:52;22.10;99.90
17639;DHT22;8938;53.546;9.954;2022-08-01T05:44:17;22.10;99.90
17639;DHT22;8938;53.546;9.954;2022-08-01T05:46:43;22.10;99.90
17639;DHT22;8938;53.546;9.954;2022-08-01T05:49:08;22.10;99.90
17639;DHT22;8938;53.546;9.954;2022-08-01T05:51:34;22.20;99.90
17639;DHT22;8938;53.546;9.954;2022-08-01T05:54:00;22.00;99.90
17639;DHT22;8938;53.546;9.954;2022-08-01T05:56:26;22.20;99.90
17639;DHT22;8938;53.546;9.954;2022-08-01T05:58:52;22.10;99.90
17639;DHT22;8938;53.546;9.954;2022-08-01T06:01:18;21.90;99.90
17639;DHT22;8938;53.546;9.954;2022-08-01T06:03:43;22.00;99.90
17639;DHT22;8938;53.546;9.954;2022-08-01T06:06:09;22.00;99.90
17639;DHT22;8938;53.546;9.954;2022-08-01T06:08:35;21.90;99.90
17639;DHT22;8938;53.546;9.954;2022-08-01T06:11:00;21.90;99.90
17639;DHT22;8938;53.546;9.954;2022-08-01T06:13:26;22.00;99.90
17639;DHT22;8938;53.546;9.954;2022-08-01T06:15:52;22.10;99.90
17639;DHT22;8938;53.546;9.954;2022-08-01T06:18:17;22.20;99.90
17639;DHT22;8938;53.546;9.954;2022-08-01T06:20:43;22.30;99.90
17639;DHT22;8938;53.546;9.954;2022-08-01T06:23:09;22.40;99.90
17639;DHT22;8938;53.546;9.954;2022-08-01T06:25:35;22.40;99.90
17639;DHT22;8938;53.546;9.954;2022-08-01T06:28:01;22.30;99.90
17639;DHT22;8938;53.546;9.954;2022-08-01T06:30:27;22.30;99.90
17639;DHT22;8938;53.546;9.954;2022-08-01T06:32:53;22.20;99.90
17639;DHT22;8938;53.546;9.954;2022-08-01T06:35:21;22.20;99.90
17639;DHT22;8938;53.546;9.954;2022-08-01T06:37:47;22.20;99.90
17639;DHT22;8938;53.546;9.954;2022-08-01T06:40:13;22.20;99.90
17639;DHT22;8938;53.546;9.954;2022-08-01T06:42:39;22.20;99.90
17639;DHT22;8938;53.546;9.954;2022-08-01T06:45:06;22.20;99.90
17639;DHT22;8938;53.546;9.954;2022-08-01T06:47:32;22.10;99.90
17639;DHT22;8938;53.546;9.954;2022-08-01T06:49:57;22.10;99.90
17639;DHT22;8938;53.546;9.954;2022-08-01T06:52:23;22.00;99.90
17639;DHT22;8938;53.546;9.954;2022-08-01T06:54:49;22.10;99.90
17639;DHT22;8938;53.546;9.954;2022-08-01T06:57:14;22.10;99.90
17639;DHT22;8938;53.546;9.954;2022-08-01T06:59:40;22.10;99.90
17639;DHT22;8938;53.546;9.954;2022-08-01T07:02:06;22.10;99.90
17639;DHT22;8938;53.546;9.954;2022-08-01T07:04:33;22.30;99.90
17639;DHT22;8938;53.546;9.954;2022-08-01T07:06:58;22.40;99.90
17639;DHT22;8938;53.546;9.954;2022-08-01T07:09:24;22.50;99.90
17639;DHT22;8938;53.546;9.954;2022-08-01T07:11:50;22.60;99.90
17639;DHT22;8938;53.546;9.954;2022-08-01T07:14:18;22.60;99.90
17639;DHT22;8938;53.546;9.954;2022-08-01T07:16:44;22.70;99.90
17639;DHT22;8938;53.546;9.954;2022-08-01T07:19:10;22.60;99.90
17639;DHT22;8938;53.546;9.954;2022-08-01T07:21:35;22.60;99.90
17639;DHT22;8938;53.546;9.954;2022-08-01T07:24:01;22.40;99.90
17639;DHT22;8938;53.546;9.954;2022-08-01T07:26:27;22.30;99.90
17639;DHT22;8938;53.546;9.954;2022-08-01T07:28:53;22.30;99.90
17639;DHT22;8938;53.546;9.954;2022-08-01T07:31:19;22.10;99.90
17639;DHT22;8938;53.546;9.954;2022-08-01T07:33:44;22.10;99.90
17639;DHT22;8938;53.546;9.954;2022-08-01T07:36:11;22.10;99.90
17639;DHT22;8938;53.546;9.954;2022-08-01T07:38:37;22.20;99.90
17639;DHT22;8938;53.546;9.954;2022-08-01T07:41:03;22.10;99.90
17639;DHT22;8938;53.546;9.954;2022-08-01T07:43:28;22.00;99.90
17639;DHT22;8938;53.546;9.954;2022-08-01T07:45:54;22.20;99.90
17639;DHT22;8938;53.546;9.954;2022-08-01T07:48:20;22.30;99.90
17639;DHT22;8938;53.546;9.954;2022-08-01T07:50:49;22.40;99.90
17639;DHT22;8938;53.546;9.954;2022-08-01T07:53:15;22.30;99.90
17639;DHT22;8938;53.546;9.954;2022-08-01T07:55:41;22.30;99.90
17639;DHT22;8938;53.546;9.954;2022-08-01T07:58:07;22.30;99.90
17639;DHT22;8938;53.546;9.954;2022-08-01T08:00:32;22.30;99.90
17639;DHT22;8938;53.546;9.954;2022-08-01T08:02:58;22.40;99.90
17639;DHT22;8938;53.546;9.954;2022-08-01T08:05:25;22.50;99.90
17639;DHT22;8938;53.546;9.954;2022-08-01T08:07:51;22.70;99.90
17639;DHT22;8938;53.546;9.954;2022-08-01T08:10:16;22.80;99.90
17639;DHT22;8938;53.546;9.954;2022-08-01T08:12:42;22.90;99.90
17639;DHT22;8938;53.546;9.954;2022-08-01T08:15:08;22.90;99.90
17639;DHT22;8938;53.546;9.954;2022-08-01T08:17:34;22.80;99.90
17639;DHT22;8938;53.546;9.954;2022-08-01T08:20:01;22.80;99.90
17639;DHT22;8938;53.546;9.954;2022-08-01T08:22:27;22.80;99.90
17639;DHT22;8938;53.546;9.954;2022-08-01T08:24:52;22.90;99.90
17639;DHT22;8938;53.546;9.954;2022-08-01T08:27:18;22.80;99.90
17639;DHT22;8938;53.546;9.954;2022-08-01T08:29:43;22.80;99.90
17639;DHT22;8938;53.546;9.954;2022-08-01T08:32:09;22.80;99.90
17639;DHT22;8938;53.546;9.954;2022-08-01T08:34:35;22.70;99.90
17639;DHT22;8938;53.546;9.954;2022-08-01T08:37:01;22.70;99.90
17639;DHT22;8938;53.546;9.954;2022-08-01T08:39:26;22.70;99.90
17639;DHT22;8938;53.546;9.954;2022-08-01T08:41:55;22.80;99.90
17639;DHT22;8938;53.546;9.954;2022-08-01T08:44:21;22.90;99.90
17639;DHT22;8938;53.546;9.954;2022-08-01T08:46:50;22.90;99.90
17639;DHT22;8938;53.546;9.954;2022-08-01T08:49:22;22.90;99.90
17639;DHT22;8938;53.546;9.954;2022-08-01T08:51:49;23.00;99.90
17639;DHT22;8938;53.546;9.954;2022-08-01T08:54:16;23.00;99.90
17639;DHT22;8938;53.546;9.954;2022-08-01T08:56:43;23.00;99.90
17639;DHT22;8938;53.546;9.954;2022-08-01T08:59:11;23.10;99.90
17639;DHT22;8938;53.546;9.954;2022-08-01T09:01:38;23.10;99.90
17639;DHT22;8938;53.546;9.954;2022-08-01T09:04:04;23.30;99.90
17639;DHT22;8938;53.546;9.954;2022-08-01T09:06:31;23.40;99.90
17639;DHT22;8938;53.546;9.954;2022-08-01T09:08:57;23.50;99.90
17639;DHT22;8938;53.546;9.954;2022-08-01T09:11:23;23.50;99.90
17639;DHT22;8938;53.546;9.954;2022-08-01T09:14:21;23.60;99.90
17639;DHT22;8938;53.546;9.954;2022-08-01T09:17:03;23.50;99.90
17639;DHT22;8938;53.546;9.954;2022-08-01T09:19:55;23.60;99.90
17639;DHT22;8938;53.546;9.954;2022-08-01T09:22:22;23.70;99.90
17639;DHT22;8938;53.546;9.954;2022-08-01T09:25:09;23.90;99.90
17639;DHT22;8938;53.546;9.954;2022-08-01T09:27:37;24.10;99.90
17639;DHT22;8938;53.546;9.954;2022-08-01T09:30:19;25.30;99.90
17639;DHT22;8938;53.546;9.954;2022-08-01T09:32:59;27.40;99.90
17639;DHT22;8938;53.546;9.954;2022-08-01T09:35:30;29.20;98.50
17639;DHT22;8938;53.546;9.954;2022-08-01T09:38:20;30.50;96.70
17639;DHT22;8938;53.546;9.954;2022-08-01T09:40:59;31.10;95.10
17639;DHT22;8938;53.546;9.954;2022-08-01T09:43:30;30.90;93.30
17639;DHT22;8938;53.546;9.954;2022-08-01T09:45:56;30.10;93.70
17639;DHT22;8938;53.546;9.954;2022-08-01T09:48:23;30.50;94.50
17639;DHT22;8938;53.546;9.954;2022-08-01T09:50:51;31.60;93.00
17639;DHT22;8938;53.546;9.954;2022-08-01T09:53:17;32.20;92.00
17639;DHT22;8938;53.546;9.954;2022-08-01T09:55:43;31.80;91.00
17639;DHT22;8938;53.546;9.954;2022-08-01T09:58:09;31.90;91.30
17639;DHT22;8938;53.546;9.954;2022-08-01T10:00:37;32.40;90.40
17639;DHT22;8938;53.546;9.954;2022-08-01T10:03:24;33.10;90.00
17639;DHT22;8938;53.546;9.954;2022-08-01T10:05:50;33.30;86.20
17639;DHT22;8938;53.546;9.954;2022-08-01T10:08:16;33.20;85.30
17639;DHT22;8938;53.546;9.954;2022-08-01T10:11:10;33.00;86.30
17639;DHT22;8938;53.546;9.954;2022-08-01T10:13:35;32.10;86.20
17639;DHT22;8938;53.546;9.954;2022-08-01T10:16:02;31.70;86.70
17639;DHT22;8938;53.546;9.954;2022-08-01T10:18:31;31.90;85.20
17639;DHT22;8938;53.546;9.954;2022-08-01T10:20:58;32.10;85.10
17639;DHT22;8938;53.546;9.954;2022-08-01T10:23:26;32.30;83.00
17639;DHT22;8938;53.546;9.954;2022-08-01T10:25:54;32.30;83.40
17639;DHT22;8938;53.546;9.954;2022-08-01T10:28:21;32.00;82.20
17639;DHT22;8938;53.546;9.954;2022-08-01T10:30:48;31.70;82.10
17639;DHT22;8938;53.546;9.954;2022-08-01T10:33:15;30.90;82.70
17639;DHT22;8938;53.546;9.954;2022-08-01T10:35:41;30.60;84.50
17639;DHT22;8938;53.546;9.954;2022-08-01T10:38:07;30.70;84.20
17639;DHT22;8938;53.546;9.954;2022-08-01T10:40:32;30.70;83.60
17639;DHT22;8938;53.546;9.954;2022-08-01T10:43:00;30.70;82.80
17639;DHT22;8938;53.546;9.954;2022-08-01T10:45:26;30.70;81.30
17639;DHT22;8938;53.546;9.954;2022-08-01T10:50:27;30.30;81.60
17639;DHT22;8938;53.546;9.954;2022-08-01T10:53:20;30.00;81.80
17639;DHT22;8938;53.546;9.954;2022-08-01T10:58:26;29.00;83.70
17639;DHT22;8938;53.546;9.954;2022-08-01T11:01:25;28.40;84.50
17639;DHT22;8938;53.546;9.954;2022-08-01T11:12:03;27.00;85.30
17639;DHT22;8938;53.546;9.954;2022-08-01T11:14:32;26.60;86.40
17639;DHT22;8938;53.546;9.954;2022-08-01T11:30:46;25.70;86.80
17639;DHT22;8938;53.546;9.954;2022-08-01T11:33:13;25.70;87.30
17639;DHT22;8938;53.546;9.954;2022-08-01T11:38:41;25.90;88.30
17639;DHT22;8938;53.546;9.954;2022-08-01T11:44:12;25.80;87.80
17639;DHT22;8938;53.546;9.954;2022-08-01T11:49:43;25.80;89.30
17639;DHT22;8938;53.546;9.954;2022-08-01T11:54:57;26.00;87.80
17639;DHT22;8938;53.546;9.954;2022-08-01T11:57:27;26.10;87.70
17639;DHT22;8938;53.546;9.954;2022-08-01T11:59:57;26.20;88.10
17639;DHT22;8938;53.546;9.954;2022-08-01T12:02:42;26.30;88.60
17639;DHT22;8938;53.546;9.954;2022-08-01T12:05:10;26.30;88.40
17639;DHT22;8938;53.546;9.954;2022-08-01T12:07:38;26.40;88.40
17639;DHT22;8938;53.546;9.954;2022-08-01T12:10:08;26.30;88.30
17639;DHT22;8938;53.546;9.954;2022-08-01T12:12:35;26.40;89.00
17639;DHT22;8938;53.546;9.954;2022-08-01T12:15:07;26.60;88.60
17639;DHT22;8938;53.546;9.954;2022-08-01T12:17:35;26.60;86.00
17639;DHT22;8938;53.546;9.954;2022-08-01T12:20:04;26.60;86.40
17639;DHT22;8938;53.546;9.954;2022-08-01T12:22:30;26.40;87.50
17639;DHT22;8938;53.546;9.954;2022-08-01T12:24:55;26.30;88.30
17639;DHT22;8938;53.546;9.954;2022-08-01T12:27:30;26.20;88.00
17639;DHT22;8938;53.546;9.954;2022-08-01T12:29:57;26.00;88.00
17639;DHT22;8938;53.546;9.954;2022-08-01T12:32:29;26.00;88.40
17639;DHT22;8938;53.546;9.954;2022-08-01T12:35:00;26.00;88.00
17639;DHT22;8938;53.546;9.954;2022-08-01T12:37:26;26.10;88.10
17639;DHT22;8938;53.546;9.954;2022-08-01T12:39:51;26.30;87.90
17639;DHT22;8938;53.546;9.954;2022-08-01T12:42:19;26.40;87.20
17639;DHT22;8938;53.546;9.954;2022-08-01T12:44:48;26.50;86.80
17639;DHT22;8938;53.546;9.954;2022-08-01T12:47:17;26.40;86.00
17639;DHT22;8938;53.546;9.954;2022-08-01T12:49:45;26.40;86.70
17639;DHT22;8938;53.546;9.954;2022-08-01T12:52:12;26.40;85.60
17639;DHT22;8938;53.546;9.954;2022-08-01T12:55:11;26.40;85.30
17639;DHT22;8938;53.546;9.954;2022-08-01T12:57:42;26.20;86.50
17639;DHT22;8938;53.546;9.954;2022-08-01T13:00:22;26.40;87.00
17639;DHT22;8938;53.546;9.954;2022-08-01T13:02:59;26.40;86.20
17639;DHT22;8938;53.546;9.954;2022-08-01T13:05:28;26.40;85.50
17639;DHT22;8938;53.546;9.954;2022-08-01T13:08:12;26.30;83.30
17639;DHT22;8938;53.546;9.954;2022-08-01T13:10:39;26.00;84.10
17639;DHT22;8938;53.546;9.954;2022-08-01T13:13:05;26.00;85.00
17639;DHT22;8938;53.546;9.954;2022-08-01T13:15:34;25.90;85.20
17639;DHT22;8938;53.546;9.954;2022-08-01T13:18:21;25.90;84.90
17639;DHT22;8938;53.546;9.954;2022-08-01T13:20:47;25.90;83.50
17639;DHT22;8938;53.546;9.954;2022-08-01T13:23:16;25.80;84.20
17639;DHT22;8938;53.546;9.954;2022-08-01T13:25:55;25.70;84.00
17639;DHT22;8938;53.546;9.954;2022-08-01T13:28:26;25.60;84.40
17639;DHT22;8938;53.546;9.954;2022-08-01T13:30:56;25.60;85.30
17639;DHT22;8938;53.546;9.954;2022-08-01T13:33:24;25.70;85.60
17639;DHT22;8938;53.546;9.954;2022-08-01T13:35:52;26.00;85.60
17639;DHT22;8938;53.546;9.954;2022-08-01T13:38:18;26.30;85.80
17639;DHT22;8938;53.546;9.954;2022-08-01T13:40:44;26.50;84.60
17639;DHT22;8938;53.546;9.954;2022-08-01T13:43:09;26.50;82.00
17639;DHT22;8938;53.546;9.954;2022-08-01T13:45:35;26.20;82.70
17639;DHT22;8938;53.546;9.954;2022-08-01T13:48:02;26.10;82.80
17639;DHT22;8938;53.546;9.954;2022-08-01T13:50:28;25.90;83.10
17639;DHT22;8938;53.546;9.954;2022-08-01T13:52:54;25.90;83.50
17639;DHT22;8938;53.546;9.954;2022-08-01T13:55:19;25.80;82.70
17639;DHT22;8938;53.546;9.954;2022-08-01T13:57:45;25.80;83.10
17639;DHT22;8938;53.546;9.954;2022-08-01T14:00:11;25.80;82.70
17639;DHT22;8938;53.546;9.954;2022-08-01T14:02:37;25.70;82.60
17639;DHT22;8938;53.546;9.954;2022-08-01T14:05:03;25.70;83.20
17639;DHT22;8938;53.546;9.954;2022-08-01T14:07:28;25.80;83.10
17639;DHT22;8938;53.546;9.954;2022-08-01T14:09:54;25.80;83.10
17639;DHT22;8938;53.546;9.954;2022-08-01T14:12:21;25.90;83.30
17639;DHT22;8938;53.546;9.954;2022-08-01T14:14:46;25.90;83.10
17639;DHT22;8938;53.546;9.954;2022-08-01T14:17:12;25.70;82.30
17639;DHT22;8938;53.546;9.954;2022-08-01T14:19:37;25.50;81.20
17639;DHT22;8938;53.546;9.954;2022-08-01T14:22:03;25.40;81.20
17639;DHT22;8938;53.546;9.954;2022-08-01T14:24:28;25.30;81.70
17639;DHT22;8938;53.546;9.954;2022-08-01T14:26:54;25.30;81.50
17639;DHT22;8938;53.546;9.954;2022-08-01T14:29:22;25.30;81.70
17639;DHT22;8938;53.546;9.954;2022-08-01T14:31:49;25.30;82.20
17639;DHT22;8938;53.546;9.954;2022-08-01T14:34:14;25.20;82.70
17639;DHT22;8938;53.546;9.954;2022-08-01T14:36:41;25.10;82.70
17639;DHT22;8938;53.546;9.954;2022-08-01T14:39:06;25.00;83.40
17639;DHT22;8938;53.546;9.954;2022-08-01T14:41:36;24.90;83.90
17639;DHT22;8938;53.546;9.954;2022-08-01T14:44:02;24.90;83.40
17639;DHT22;8938;53.546;9.954;2022-08-01T14:46:27;25.00;83.40
17639;DHT22;8938;53.546;9.954;2022-08-01T14:48:54;24.90;82.90
17639;DHT22;8938;53.546;9.954;2022-08-01T14:51:21;24.80;83.10
17639;DHT22;8938;53.546;9.954;2022-08-01T14:53:47;24.90;83.40
17639;DHT22;8938;53.546;9.954;2022-08-01T14:56:13;24.80;83.80
17639;DHT22;8938;53.546;9.954;2022-08-01T14:58:38;24.90;84.40
17639;DHT22;8938;53.546;9.954;2022-08-01T15:01:04;25.10;85.20
17639;DHT22;8938;53.546;9.954;2022-08-01T15:03:31;25.20;83.70
17639;DHT22;8938;53.546;9.954;2022-08-01T15:06:00;25.00;83.50
17639;DHT22;8938;53.546;9.954;2022-08-01T15:08:26;25.00;83.80
17639;DHT22;8938;53.546;9.954;2022-08-01T15:10:52;25.10;84.20
17639;DHT22;8938;53.546;9.954;2022-08-01T15:13:17;25.00;83.70
17639;DHT22;8938;53.546;9.954;2022-08-01T15:15:43;25.00;83.60
17639;DHT22;8938;53.546;9.954;2022-08-01T15:18:09;24.80;83.80
17639;DHT22;8938;53.546;9.954;2022-08-01T15:20:38;24.90;84.20
17639;DHT22;8938;53.546;9.954;2022-08-01T15:23:05;24.90;84.10
17639;DHT22;8938;53.546;9.954;2022-08-01T15:25:31;25.00;84.30
17639;DHT22;8938;53.546;9.954;2022-08-01T15:27:56;25.00;84.70
17639;DHT22;8938;53.546;9.954;2022-08-01T15:30:22;25.00;84.10
17639;DHT22;8938;53.546;9.954;2022-08-01T15:32:47;24.80;84.30
17639;DHT22;8938;53.546;9.954;2022-08-01T15:35:13;24.70;84.80
17639;DHT22;8938;53.546;9.954;2022-08-01T15:37:39;24.70;84.90
17639;DHT22;8938;53.546;9.954;2022-08-01T15:40:05;24.60;84.40
17639;DHT22;8938;53.546;9.954;2022-08-01T15:42:32;24.50;84.90
17639;DHT22;8938;53.546;9.954;2022-08-01T15:44:57;24.30;85.20
17639;DHT22;8938;53.546;9.954;2022-08-01T15:47:25;24.30;86.00
17639;DHT22;8938;53.546;9.954;2022-08-01T15:49:51;24.40;86.40
17639;DHT22;8938;53.546;9.954;2022-08-01T15:52:17;24.40;86.50
17639;DHT22;8938;53.546;9.954;2022-08-01T15:54:43;24.40;85.90
17639;DHT22;8938;53.546;9.954;2022-08-01T15:57:09;24.40;86.10
17639;DHT22;8938;53.546;9.954;2022-08-01T15:59:36;24.20;86.00
17639;DHT22;8938;53.546;9.954;2022-08-01T16:02:02;24.20;86.20
17639;DHT22;8938;53.546;9.954;2022-08-01T16:04:28;24.20;86.10
17639;DHT22;8938;53.546;9.954;2022-08-01T16:06:53;24.20;87.20
17639;DHT22;8938;53.546;9.954;2022-08-01T16:09:20;24.30;86.50
17639;DHT22;8938;53.546;9.954;2022-08-01T16:11:45;24.40;86.30
17639;DHT22;8938;53.546;9.954;2022-08-01T16:14:11;24.30;86.40
17639;DHT22;8938;53.546;9.954;2022-08-01T16:16:36;24.30;86.00
17639;DHT22;8938;53.546;9.954;2022-08-01T16:19:02;24.20;86.40
17639;DHT22;8938;53.546;9.954;2022-08-01T16:21:30;24.10;86.70
17639;DHT22;8938;53.546;9.954;2022-08-01T16:23:56;24.00;86.90
17639;DHT22;8938;53.546;9.954;2022-08-01T16:26:22;24.00;87.50
17639;DHT22;8938;53.546;9.954;2022-08-01T16:28:47;24.00;87.30
17639;DHT22;8938;53.546;9.954;2022-08-01T16:31:16;24.10;87.70
17639;DHT22;8938;53.546;9.954;2022-08-01T16:33:42;24.10;87.50
17639;DHT22;8938;53.546;9.954;2022-08-01T16:36:08;24.10;87.30